Time;durP1;ratioP1;P1;durP2;ratioP2;P2;SDS_P1;SDS_P2;PMS_P1;PMS_P2;Temp;Humidity;BMP_temperature;BMP_pressure;BME280_temperature;BME280_humidity;BME280_pressure;Samples;Min_cycle;Max_cycle;Signal;HPM_P1;HPM_P2
2022/09/21 00:00:45;;;;;;;8.75;4.30;;;;;;;13.02;80.89;102666.25;5026953;28;20136;-70
2022/09/21 00:03:13;;;;;;;8.00;4.10;;;;;;;13.01;80.73;102662.78;5026111;28;20034;-70
2022/09/21 00:05:38;;;;;;;8.93;4.35;;;;;;;12.97;80.65;102666.03;5027723;28;20041;-70
2022/09/21 00:08:06;;;;;;;8.63;4.40;;;;;;;12.93;80.76;102661.56;5026444;28;20025;-70
2022/09/21 00:10:33;;;;;;;5.88;3.63;;;;;;;12.89;80.41;102663.09;5026778;28;20025;-70
2022/09/21 00:13:01;;;;;;;6.57;4.13;;;;;;;12.87;80.77;102667.31;5027303;28;20527;-70
2022/09/21 00:15:26;;;;;;;8.45;3.97;;;;;;;12.87;80.76;102661.25;5004207;28;20034;-70
2022/09/21 00:17:53;;;;;;;8.95;4.07;;;;;;;12.88;80.78;102661.31;5024389;28;20531;-70
2022/09/21 00:20:20;;;;;;;11.07;4.15;;;;;;;12.86;80.45;102660.38;5025171;28;20026;-70
2022/09/21 00:22:46;;;;;;;5.43;3.63;;;;;;;12.83;81.13;102656.75;5023922;28;20033;-70
2022/09/21 00:25:13;;;;;;;9.57;4.10;;;;;;;12.79;80.53;102649.66;5026388;28;20041;-70
2022/09/21 00:27:38;;;;;;;8.20;4.00;;;;;;;12.78;80.51;102659.09;5024965;28;20144;-70
2022/09/21 00:30:05;;;;;;;7.45;3.50;;;;;;;12.78;80.19;102659.09;5028790;28;20108;-70
2022/09/21 00:32:32;;;;;;;7.90;4.07;;;;;;;12.79;80.18;102660.00;5023722;28;20038;-70
2022/09/21 00:34:59;;;;;;;8.63;3.60;;;;;;;12.71;80.14;102661.34;5024738;28;20033;-70
2022/09/21 00:37:25;;;;;;;7.63;3.95;;;;;;;12.67;80.27;102660.28;5025657;28;20098;-70
2022/09/21 00:39:50;;;;;;;6.22;3.60;;;;;;;12.68;79.89;102662.09;5025215;28;20033;-70
2022/09/21 00:42:22;;;;;;;9.30;3.90;;;;;;;12.63;80.43;102660.97;5026537;28;20481;-70
2022/09/21 00:44:48;;;;;;;8.05;3.60;;;;;;;12.63;80.16;102657.50;5006478;28;20099;-70
2022/09/21 00:47:16;;;;;;;7.63;3.80;;;;;;;12.60;80.50;102659.13;5027007;28;20029;-70
2022/09/21 00:49:44;;;;;;;7.20;3.90;;;;;;;12.60;80.66;102653.94;5024204;28;20025;-70
2022/09/21 00:52:13;;;;;;;7.43;3.60;;;;;;;12.57;80.68;102651.25;5010295;28;20031;-70
2022/09/21 00:54:59;;;;;;;;;;;;;;;12.83;79.35;102655.06;5023496;28;20025;-70
2022/09/21 00:57:29;;;;;;;7.18;3.88;;;;;;;12.65;80.45;102671.38;5025312;28;19952;-70
2022/09/21 00:59:57;;;;;;;7.07;3.58;;;;;;;12.61;80.52;102660.00;5024953;28;20139;-70
2022/09/21 01:02:23;;;;;;;6.22;3.50;;;;;;;12.61;80.74;102665.16;5025786;28;20029;-70
2022/09/21 01:04:52;;;;;;;7.70;3.67;;;;;;;12.55;80.91;102657.13;5023761;28;20045;-70
2022/09/21 01:07:22;;;;;;;10.15;3.47;;;;;;;12.56;80.75;102661.50;5027261;28;20080;-70
2022/09/21 01:09:51;;;;;;;9.60;3.97;;;;;;;12.55;80.87;102665.75;5025153;28;20029;-70
2022/09/21 01:12:29;;;;;;;7.28;3.38;;;;;;;12.56;80.54;102666.66;5002950;28;20041;-70
2022/09/21 01:15:10;;;;;;;6.03;3.45;;;;;;;12.55;80.60;102667.44;5002693;28;20034;-70
2022/09/21 01:17:35;;;;;;;6.32;3.28;;;;;;;12.52;80.70;102667.31;5006107;28;20524;-70
2022/09/21 01:20:19;;;;;;;6.25;3.30;;;;;;;12.58;80.29;102667.59;5004951;28;20029;-70
2022/09/21 01:23:06;;;;;;;6.53;3.17;;;;;;;12.45;80.67;102666.13;5004247;28;20038;-70
2022/09/21 01:25:53;;;;;;;11.90;3.90;;;;;;;12.43;80.21;102659.97;5001435;28;20030;-70
2022/09/21 01:28:50;;;;;;;10.63;3.95;;;;;;;12.46;80.45;102669.59;5005063;28;20057;-70
2022/09/21 01:31:25;;;;;;;7.50;3.75;;;;;;;12.44;80.32;102660.91;4936863;28;20154;-70
2022/09/21 01:33:57;;;;;;;6.60;3.60;;;;;;;12.40;80.46;102665.00;5005301;28;20288;-70
2022/09/21 01:36:27;;;;;;;10.48;3.28;;;;;;;12.33;80.83;102665.53;4999808;28;20057;-70
2022/09/21 01:39:08;;;;;;;7.95;3.78;;;;;;;12.37;80.40;102663.97;5004435;28;20068;-70
2022/09/21 01:41:37;;;;;;;8.55;3.90;;;;;;;12.30;80.83;102663.66;5002922;28;20117;-70
2022/09/21 01:44:17;;;;;;;6.50;3.50;;;;;;;12.33;81.22;102668.97;5003418;28;20053;-70
2022/09/21 01:46:45;;;;;;;6.70;3.65;;;;;;;12.36;80.71;102663.06;5002293;28;20033;-70
2022/09/21 01:49:15;;;;;;;8.02;3.67;;;;;;;12.35;80.96;102669.06;5006091;28;20021;-70
2022/09/21 01:51:46;;;;;;;6.93;3.42;;;;;;;12.33;80.83;102671.56;5004381;28;20034;-70
2022/09/21 01:54:18;;;;;;;6.90;3.58;;;;;;;12.31;81.16;102670.59;5005792;28;20028;-70
2022/09/21 01:56:50;;;;;;;6.43;3.45;;;;;;;12.29;81.14;102661.88;5002184;28;20091;-70
2022/09/21 01:59:53;;;;;;;9.90;4.28;;;;;;;12.33;80.78;102663.81;5004339;28;20026;-70
2022/09/21 02:02:30;;;;;;;6.47;3.65;;;;;;;12.28;81.06;102665.28;5002548;28;20033;-70
2022/09/21 02:04:55;;;;;;;6.88;3.70;;;;;;;12.21;81.46;102667.50;4994575;28;21238;-70
2022/09/21 02:07:21;;;;;;;7.75;3.53;;;;;;;12.16;81.35;102667.25;4999270;28;20029;-70
2022/09/21 02:09:47;;;;;;;6.30;3.30;;;;;;;12.14;81.15;102671.47;5002608;28;20034;-70
2022/09/21 02:12:13;;;;;;;5.75;3.80;;;;;;;12.17;80.96;102666.44;5010434;28;20611;-70
2022/09/21 02:14:39;;;;;;;5.13;3.17;;;;;;;12.07;81.36;102659.94;5022613;28;20041;-70
2022/09/21 02:17:10;;;;;;;7.78;3.42;;;;;;;12.14;81.29;102665.41;5024433;28;20420;-70
2022/09/21 02:20:05;;;;;;;4.95;3.20;;;;;;;12.14;81.58;102668.00;5022402;28;20041;-70
2022/09/21 02:22:39;;;;;;;8.82;4.00;;;;;;;12.09;81.43;102662.59;5017300;28;20042;-70
2022/09/21 02:25:22;;;;;;;8.30;3.95;;;;;;;12.19;80.81;102664.81;5006364;28;20029;-70
2022/09/21 02:28:28;;;;;;;6.43;3.65;;;;;;;12.16;80.55;102658.63;5022975;28;20094;-70
2022/09/21 02:31:02;;;;;;;9.10;3.70;;;;;;;12.07;81.13;102659.94;4995448;28;20057;-70
2022/09/21 02:33:35;;;;;;;9.10;3.85;;;;;;;12.05;81.12;102665.81;5006007;28;20388;-70
2022/09/21 02:36:09;;;;;;;6.30;4.10;;;;;;;12.00;81.47;102662.13;5025671;28;20072;-70
2022/09/21 02:38:37;;;;;;;10.55;4.00;;;;;;;11.95;81.60;102673.88;5022818;28;20029;-70
2022/09/21 02:41:29;;;;;;;6.88;3.70;;;;;;;11.90;81.71;102665.94;5025340;28;20022;-70
2022/09/21 02:44:11;;;;;;;6.35;3.78;;;;;;;11.94;80.97;102665.25;5022847;28;20040;-70
2022/09/21 02:46:42;;;;;;;7.35;3.63;;;;;;;11.85;80.94;102663.94;5028404;28;20033;-70
2022/09/21 02:49:15;;;;;;;7.97;3.92;;;;;;;11.79;80.72;102657.63;5026225;28;20415;-70
2022/09/21 02:52:05;;;;;;;8.80;3.88;;;;;;;11.81;80.56;102653.44;5027545;28;20025;-70
2022/09/21 02:54:33;;;;;;;6.82;3.80;;;;;;;11.69;80.70;102655.34;5008094;28;20029;-70
2022/09/21 02:57:00;;;;;;;7.85;3.75;;;;;;;11.72;80.32;102671.00;5028226;28;20025;-70
2022/09/21 02:59:27;;;;;;;7.25;4.07;;;;;;;11.61;80.59;102666.97;5027549;28;20590;-70
2022/09/21 03:01:54;;;;;;;5.80;3.65;;;;;;;11.59;80.87;102663.44;5008847;28;20168;-70
2022/09/21 03:04:20;;;;;;;5.72;3.92;;;;;;;11.61;80.77;102664.38;5027627;28;20053;-70
2022/09/21 03:06:46;;;;;;;6.80;3.85;;;;;;;11.56;80.72;102663.25;5009724;28;20026;-70
2022/09/21 03:09:11;;;;;;;7.72;3.95;;;;;;;11.59;80.49;102663.44;5027402;28;20064;-70
2022/09/21 03:11:37;;;;;;;6.40;3.65;;;;;;;11.59;80.48;102662.53;5023763;28;20030;-71
2022/09/21 03:14:07;;;;;;;8.82;4.07;;;;;;;11.54;80.33;102660.59;5026761;28;20105;-70
2022/09/21 03:16:36;;;;;;;7.50;4.05;;;;;;;11.52;80.42;102669.03;5028606;28;20128;-70
2022/09/21 03:19:02;;;;;;;7.38;3.75;;;;;;;11.49;80.10;102671.47;5026283;28;20116;-70
2022/09/21 03:21:27;;;;;;;9.80;4.07;;;;;;;11.44;80.21;102672.91;5027026;28;20028;-71
2022/09/21 03:23:53;;;;;;;8.52;4.00;;;;;;;11.40;80.16;102673.53;5009118;28;20100;-70
2022/09/21 03:26:21;;;;;;;5.70;3.78;;;;;;;11.35;80.43;102681.06;5009534;28;20041;-70
2022/09/21 03:28:48;;;;;;;7.60;4.00;;;;;;;11.34;80.79;102674.09;5025516;28;20034;-70
2022/09/21 03:31:14;;;;;;;7.82;3.85;;;;;;;11.29;80.89;102675.56;5026153;28;20116;-70
2022/09/21 03:33:39;;;;;;;7.40;3.75;;;;;;;11.28;80.88;102676.34;5006927;28;20101;-70
2022/09/21 03:36:05;;;;;;;6.30;3.88;;;;;;;11.20;80.78;102683.66;5028089;28;20476;-70
2022/09/21 03:38:30;;;;;;;7.80;3.95;;;;;;;11.25;80.79;102677.06;5010120;28;20673;-71
2022/09/21 03:40:56;;;;;;;9.20;3.97;;;;;;;11.21;81.15;102687.13;5025480;28;20396;-70
2022/09/21 03:43:23;;;;;;;8.75;4.28;;;;;;;11.18;81.35;102682.69;5025503;28;20114;-71
2022/09/21 03:45:48;;;;;;;8.80;3.95;;;;;;;11.16;81.28;102686.91;5025827;28;20047;-70
2022/09/21 03:48:14;;;;;;;5.72;3.75;;;;;;;11.18;80.97;102684.41;5026949;28;20037;-70
2022/09/21 03:50:40;;;;;;;5.55;3.85;;;;;;;11.19;81.03;102684.47;5007228;28;20033;-70
2022/09/21 03:53:05;;;;;;;7.65;3.88;;;;;;;11.17;81.06;102682.63;5021848;28;20034;-70
2022/09/21 03:55:31;;;;;;;5.47;3.33;;;;;;;11.16;81.30;102692.03;5025707;28;20029;-70
2022/09/21 03:57:56;;;;;;;7.97;3.95;;;;;;;11.17;80.77;102688.66;5025998;28;20036;-70
2022/09/21 04:00:22;;;;;;;6.30;3.70;;;;;;;11.14;80.51;102679.88;5007586;28;20021;-70
2022/09/21 04:02:47;;;;;;;5.57;3.85;;;;;;;11.14;80.77;102685.03;5026315;28;20099;-70
2022/09/21 04:05:14;;;;;;;5.65;3.70;;;;;;;11.18;80.74;102686.97;5025031;28;20092;-70
2022/09/21 04:07:41;;;;;;;8.75;4.30;;;;;;;11.04;80.90;102686.19;5026441;28;20100;-70
2022/09/21 04:10:13;;;;;;;6.85;3.67;;;;;;;11.11;80.69;102684.88;5025550;28;20061;-70
2022/09/21 04:12:43;;;;;;;8.90;4.10;;;;;;;11.08;80.04;102677.84;5008342;28;20136;-70
2022/09/21 04:15:10;;;;;;;7.78;3.83;;;;;;;11.03;80.17;102681.84;4982946;28;20069;-70
2022/09/21 04:17:36;;;;;;;7.88;3.88;;;;;;;11.01;80.19;102686.91;5008667;28;20033;-70
2022/09/21 04:20:02;;;;;;;8.25;4.20;;;;;;;10.98;80.31;102678.13;5025499;28;20056;-70
2022/09/21 04:22:27;;;;;;;5.72;3.92;;;;;;;10.89;79.47;102675.94;5026278;28;20029;-70
2022/09/21 04:24:52;;;;;;;6.55;3.63;;;;;;;10.92;79.44;102676.13;5024049;28;20049;-70
2022/09/21 04:27:18;;;;;;;9.63;4.15;;;;;;;10.93;79.34;102679.59;5027127;28;20022;-70
2022/09/21 04:29:43;;;;;;;6.65;3.58;;;;;;;10.85;79.11;102670.53;5003351;28;20065;-70
2022/09/21 04:32:10;;;;;;;4.65;3.50;;;;;;;10.80;79.04;102679.69;5026464;28;20041;-71
2022/09/21 04:34:38;;;;;;;8.38;4.05;;;;;;;10.69;78.92;102680.00;5024581;28;20041;-71
2022/09/21 04:37:04;;;;;;;8.25;3.85;;;;;;;10.72;79.25;102692.13;5025348;28;20103;-71
2022/09/21 04:39:30;;;;;;;5.70;3.72;;;;;;;10.73;79.08;102688.75;5000018;28;20112;-71
2022/09/21 04:41:55;;;;;;;8.68;3.72;;;;;;;10.71;79.02;102691.25;5025440;28;20459;-71
2022/09/21 04:44:21;;;;;;;6.95;3.80;;;;;;;10.67;78.88;102694.44;5024275;28;20036;-71
2022/09/21 04:46:46;;;;;;;7.32;4.15;;;;;;;10.60;78.79;102694.88;5005067;28;20037;-71
2022/09/21 04:49:11;;;;;;;6.07;3.42;;;;;;;10.61;78.72;102693.19;5003531;28;20235;-71
2022/09/21 04:51:37;;;;;;;6.47;3.60;;;;;;;10.60;78.75;102687.16;5010987;28;20094;-71
2022/09/21 04:54:03;;;;;;;6.80;3.80;;;;;;;10.60;78.56;102694.88;5023922;28;20037;-71
2022/09/21 04:56:29;;;;;;;7.47;3.78;;;;;;;10.57;78.67;102697.31;5025081;28;20057;-71
2022/09/21 04:58:54;;;;;;;5.50;3.40;;;;;;;10.60;78.33;102700.03;5025070;28;20025;-71
2022/09/21 05:01:20;;;;;;;6.80;3.40;;;;;;;10.60;78.24;102696.56;5024401;28;20037;-71
2022/09/21 05:03:45;;;;;;;6.30;3.42;;;;;;;10.58;78.32;102701.63;5025139;28;20030;-71
2022/09/21 05:06:12;;;;;;;6.38;3.33;;;;;;;10.62;77.96;102698.44;5007411;28;20033;-70
2022/09/21 05:11:22;;;;;;;4.28;2.70;;;;;;;10.52;78.09;102697.84;5028806;28;20041;-72
2022/09/21 05:13:47;;;;;;;5.00;2.83;;;;;;;10.48;77.93;102707.03;5024724;28;20053;-71
2022/09/21 05:16:14;;;;;;;5.10;3.05;;;;;;;10.42;78.13;102709.25;5024749;28;21011;-71
2022/09/21 05:18:40;;;;;;;4.95;2.67;;;;;;;10.38;78.62;102703.06;5024673;28;20061;-71
2022/09/21 05:21:06;;;;;;;4.95;2.80;;;;;;;10.42;78.66;102711.84;5024992;28;20139;-71
2022/09/21 05:23:35;;;;;;;6.28;2.83;;;;;;;10.40;78.46;102709.19;5021981;28;20026;-72
2022/09/21 05:26:01;;;;;;;;;;;;;;;10.67;77.69;102717.59;5012036;28;20037;-72
2022/09/21 05:28:26;;;;;;;5.20;2.75;;;;;;;10.47;78.28;102708.72;5030375;28;19939;-72
2022/09/21 05:31:03;;;;;;;6.00;2.50;;;;;;;10.43;78.33;102709.38;5029237;28;20040;-72
2022/09/21 05:33:31;;;;;;;6.68;2.90;;;;;;;10.40;78.49;102723.72;5029505;28;20033;-72
2022/09/21 05:36:30;;;;;;;3.13;2.35;;;;;;;10.45;78.42;102722.31;5027740;28;20389;-72
2022/09/21 05:38:56;;;;;;;3.83;2.90;;;;;;;10.32;78.40;102724.97;5028090;28;20450;-72
2022/09/21 05:41:22;;;;;;;6.38;3.03;;;;;;;10.30;78.90;102724.84;4993545;28;20122;-73
2022/09/21 05:43:48;;;;;;;3.28;2.97;;;;;;;10.27;78.51;102718.66;5027141;28;20033;-73
2022/09/21 05:46:31;;;;;;;6.00;3.55;;;;;;;10.36;78.77;102726.91;5027507;28;20450;-73
2022/09/21 05:49:16;;;;;;;5.32;3.83;;;;;;;10.31;79.07;102718.91;5005074;28;20037;-73
2022/09/21 05:52:11;;;;;;;7.05;4.00;;;;;;;10.33;79.56;102730.19;5029195;28;20024;-73
2022/09/21 05:54:44;;;;;;;5.82;3.90;;;;;;;10.36;79.54;102734.63;5009221;28;20088;-73
2022/09/21 05:57:24;;;;;;;5.57;4.00;;;;;;;10.35;79.48;102726.03;5026869;28;20049;-72
2022/09/21 06:00:00;;;;;;;7.97;4.03;;;;;;;10.35;79.10;102726.03;5026099;28;20037;-72
2022/09/21 06:02:33;;;;;;;6.97;3.90;;;;;;;10.36;79.24;102730.38;5027976;28;20057;-72
2022/09/21 06:05:01;;;;;;;8.15;3.83;;;;;;;10.28;79.43;102730.72;5025994;28;20476;-73
2022/09/21 06:07:26;;;;;;;5.05;3.65;;;;;;;10.30;79.83;102729.13;5022618;28;20021;-74
2022/09/21 06:09:52;;;;;;;7.40;4.20;;;;;;;10.32;80.42;102738.72;5007804;28;20033;-73
2022/09/21 06:12:17;;;;;;;6.80;4.18;;;;;;;10.29;80.30;102737.63;5027612;28;20049;-73
2022/09/21 06:14:43;;;;;;;12.70;4.97;;;;;;;10.33;80.46;102740.50;5027689;28;20542;-73
2022/09/21 06:17:08;;;;;;;8.40;4.50;;;;;;;10.39;80.18;102737.38;5028302;28;20060;-73
2022/09/21 06:19:34;;;;;;;8.00;4.28;;;;;;;10.37;80.73;102739.84;5027986;28;20033;-73
2022/09/21 06:21:59;;;;;;;10.13;4.60;;;;;;;10.39;80.37;102747.69;5026260;28;20053;-73
2022/09/21 06:24:24;;;;;;;7.13;4.57;;;;;;;10.39;80.95;102737.38;5028865;28;20025;-73
2022/09/21 06:26:50;;;;;;;8.88;4.38;;;;;;;10.44;81.03;102743.69;5028898;28;20041;-73
2022/09/21 06:29:22;;;;;;;9.25;4.75;;;;;;;10.43;81.46;102741.91;5028978;28;20022;-73
2022/09/21 06:31:48;;;;;;;9.02;5.13;;;;;;;10.47;81.65;102741.28;5025679;28;20044;-73
2022/09/21 06:34:13;;;;;;;12.50;5.75;;;;;;;10.53;81.85;102743.31;5024140;28;20033;-73
2022/09/21 06:36:38;;;;;;;6.57;5.07;;;;;;;10.57;82.12;102733.31;5025136;28;20088;-73
2022/09/21 06:39:04;;;;;;;10.38;4.90;;;;;;;10.56;82.23;102731.53;5029228;28;20389;-73
2022/09/21 06:41:29;;;;;;;7.32;4.80;;;;;;;10.65;82.45;102747.50;5028942;28;20022;-73
2022/09/21 06:43:55;;;;;;;11.73;5.50;;;;;;;10.70;82.87;102751.22;5010785;28;20069;-73
2022/09/21 06:46:21;;;;;;;8.90;5.47;;;;;;;10.69;83.19;102748.56;5011045;28;20079;-73
2022/09/21 06:48:47;;;;;;;11.07;5.97;;;;;;;10.71;83.20;102742.69;5027418;28;20034;-73
2022/09/21 06:51:12;;;;;;;9.55;6.07;;;;;;;10.74;83.60;102753.19;5027687;28;20065;-73
2022/09/21 06:53:37;;;;;;;11.73;5.47;;;;;;;10.76;83.87;102742.97;5028202;28;20044;-73
2022/09/21 06:56:08;;;;;;;12.52;6.18;;;;;;;10.82;84.19;102747.59;5011251;28;20037;-73
2022/09/21 06:58:35;;;;;;;11.75;6.70;;;;;;;10.87;84.66;102749.63;5027775;28;20109;-73
2022/09/21 07:01:10;;;;;;;13.98;6.53;;;;;;;10.98;84.79;102750.19;5010273;28;20034;-73
2022/09/21 07:03:37;;;;;;;18.13;6.40;;;;;;;11.05;84.97;102751.47;5007340;28;20057;-73
2022/09/21 07:06:02;;;;;;;13.10;6.40;;;;;;;11.17;84.42;102754.72;5028928;28;20116;-73
2022/09/21 07:08:28;;;;;;;13.88;6.18;;;;;;;11.33;83.92;102751.28;5009982;28;20156;-73
2022/09/21 07:10:57;;;;;;;13.38;6.45;;;;;;;11.44;84.52;102747.63;5025310;28;20125;-73
2022/09/21 07:13:22;;;;;;;13.48;6.43;;;;;;;11.57;84.16;102752.63;5022446;28;20076;-73
2022/09/21 07:15:48;;;;;;;12.75;5.82;;;;;;;11.70;82.95;102749.91;5028053;28;20396;-73
2022/09/21 07:18:13;;;;;;;12.27;6.15;;;;;;;11.82;83.16;102750.59;5028372;28;20492;-73
2022/09/21 07:20:40;;;;;;;9.30;5.63;;;;;;;11.94;83.41;102747.75;5027085;28;20030;-73
2022/09/21 07:23:14;;;;;;;11.35;5.75;;;;;;;12.10;82.99;102756.31;5028554;28;20520;-73
2022/09/21 07:25:40;;;;;;;7.80;4.57;;;;;;;12.20;81.23;102746.56;5028274;28;20030;-73
2022/09/21 07:28:06;;;;;;;9.90;4.30;;;;;;;12.40;80.09;102751.84;5028941;28;20036;-73
2022/09/21 07:30:31;;;;;;;12.52;4.28;;;;;;;12.55;79.70;102748.31;5026865;28;20388;-73
2022/09/21 07:32:57;;;;;;;9.32;4.10;;;;;;;12.69;79.21;102745.56;5032043;28;20040;-73
2022/09/21 07:35:23;;;;;;;9.05;3.85;;;;;;;12.82;77.84;102745.34;5032250;28;20400;-73
2022/09/21 07:37:48;;;;;;;10.63;3.53;;;;;;;12.94;76.76;102742.47;5032109;28;20033;-73
2022/09/21 07:40:14;;;;;;;8.35;3.63;;;;;;;13.10;76.94;102747.53;5013120;28;20029;-73
2022/09/21 07:42:39;;;;;;;9.95;3.30;;;;;;;13.23;76.40;102749.06;5030484;28;20033;-73
2022/09/21 07:45:05;;;;;;;11.00;3.35;;;;;;;13.37;75.56;102743.72;5031976;28;20041;-73
2022/09/21 07:47:31;;;;;;;7.35;3.35;;;;;;;13.56;75.41;102747.16;5030550;28;20033;-73
2022/09/21 07:49:56;;;;;;;9.38;3.50;;;;;;;13.69;74.23;102745.19;5030183;28;20112;-73
2022/09/21 07:52:22;;;;;;;9.48;3.35;;;;;;;13.88;73.42;102746.00;5029657;28;20116;-73
2022/09/21 07:54:47;;;;;;;5.95;2.80;;;;;;;14.06;73.30;102743.34;5031429;28;20064;-73
2022/09/21 07:59:57;;;;;;;7.32;2.90;;;;;;;14.20;71.20;102737.97;5030132;28;20079;-73
2022/09/21 08:02:23;;;;;;;5.95;2.63;;;;;;;14.29;71.18;102731.41;5029536;28;20033;-72
2022/09/21 08:04:48;;;;;;;11.75;3.22;;;;;;;14.39;70.68;102744.81;5030975;28;20041;-72
2022/09/21 08:07:14;;;;;;;8.57;2.80;;;;;;;14.52;70.77;102738.47;5015078;28;20033;-72
2022/09/21 08:09:40;;;;;;;6.90;2.78;;;;;;;14.61;69.51;102743.13;5031115;28;20060;-72
2022/09/21 08:12:06;;;;;;;4.82;2.25;;;;;;;14.75;68.97;102736.84;5009828;28;20112;-72
2022/09/21 08:14:32;;;;;;;6.20;2.45;;;;;;;14.90;69.22;102740.03;5024998;28;20033;-72
2022/09/21 08:16:57;;;;;;;9.50;2.70;;;;;;;14.96;68.28;102732.50;5013343;28;20033;-72
2022/09/21 08:19:24;;;;;;;7.25;2.50;;;;;;;15.09;68.30;102735.59;5024969;28;20032;-72
2022/09/21 08:21:50;;;;;;;9.57;3.10;;;;;;;15.22;67.22;102735.22;5012690;28;20451;-72
2022/09/21 08:24:15;;;;;;;7.50;2.33;;;;;;;15.26;68.05;102738.00;5031515;28;20053;-72
2022/09/21 08:26:41;;;;;;;7.30;2.63;;;;;;;15.34;68.56;102750.38;5030519;28;20040;-72
2022/09/21 08:29:07;;;;;;;7.28;2.65;;;;;;;15.40;66.84;102746.31;5030945;28;20392;-72
2022/09/21 08:31:33;;;;;;;6.22;2.20;;;;;;;15.46;66.88;102748.25;5029245;28;20153;-71
2022/09/21 08:33:59;;;;;;;9.18;2.72;;;;;;;15.58;66.20;102746.13;5029645;28;20033;-72
2022/09/21 08:36:25;;;;;;;8.45;2.08;;;;;;;15.61;65.66;102747.97;5029442;28;20033;-72
2022/09/21 08:38:50;;;;;;;6.95;1.90;;;;;;;15.69;64.47;102744.84;5024055;28;20045;-72
2022/09/21 08:41:19;;;;;;;5.38;2.10;;;;;;;15.73;64.95;102751.91;5010905;28;20417;-72
2022/09/21 08:43:59;;;;;;;6.20;1.80;;;;;;;15.79;66.77;102752.16;5013920;28;20025;-72
2022/09/21 08:46:27;;;;;;;8.38;1.90;;;;;;;15.78;64.92;102752.97;5007424;28;20034;-71
2022/09/21 08:49:13;;;;;;;5.18;1.77;;;;;;;15.87;65.21;102751.53;5025501;28;20021;-71
2022/09/21 08:51:47;;;;;;;6.75;1.75;;;;;;;15.93;63.43;102754.34;5026611;28;20029;-71
2022/09/21 08:54:19;;;;;;;4.50;1.83;;;;;;;15.92;62.89;102758.66;5024271;28;20021;-71
2022/09/21 08:56:46;;;;;;;7.78;1.75;;;;;;;16.00;61.99;102757.22;5025536;28;20025;-71
2022/09/21 08:59:14;;;;;;;8.35;1.90;;;;;;;15.91;61.25;102753.44;5023778;28;20033;-71
2022/09/21 09:02:12;;;;;;;5.70;1.55;;;;;;;16.02;62.73;102760.78;5019772;28;20555;-71
2022/09/21 09:04:59;;;;;;;7.18;1.75;;;;;;;16.00;61.67;102770.19;5003663;28;20049;-71
2022/09/21 09:07:58;;;;;;;3.78;1.90;;;;;;;16.11;62.84;102759.31;5001362;28;20392;-71
2022/09/21 09:10:29;;;;;;;;;;;;;;;16.19;63.37;102768.25;5021254;28;20065;-71
2022/09/21 09:13:16;;;;;;;6.65;2.00;;;;;;;16.18;62.58;102758.69;5022571;28;20635;-71
2022/09/21 09:16:01;;;;;;;6.63;2.03;;;;;;;16.07;61.18;102761.78;5012714;28;20033;-71
2022/09/21 09:18:48;;;;;;;7.13;2.53;;;;;;;16.21;61.47;102764.91;5022370;28;20022;-71
2022/09/21 09:21:22;;;;;;;6.30;2.05;;;;;;;16.18;60.05;102775.16;5025814;28;20037;-71
2022/09/21 09:23:59;;;;;;;5.68;1.60;;;;;;;16.26;60.20;102765.03;5027760;28;20530;-71
2022/09/21 09:26:41;;;;;;;5.25;1.88;;;;;;;16.33;61.27;102762.72;5019375;28;20060;-71
2022/09/21 09:29:41;;;;;;;11.15;2.10;;;;;;;16.41;62.29;102765.56;5023469;28;20025;-70
2022/09/21 09:32:13;;;;;;;8.75;2.10;;;;;;;16.44;61.97;102765.69;5024538;28;20491;-71
2022/09/21 09:34:54;;;;;;;7.05;1.83;;;;;;;16.44;60.65;102767.38;5021674;28;20065;-71
2022/09/21 09:37:26;;;;;;;7.75;1.90;;;;;;;16.42;61.67;102764.75;5028559;28;20484;-70
2022/09/21 09:39:56;;;;;;;11.75;2.83;;;;;;;16.31;61.27;102764.38;5028724;28;20021;-70
2022/09/21 09:42:35;;;;;;;6.00;2.20;;;;;;;16.15;60.07;102767.28;5025658;28;20025;-70
2022/09/21 09:45:27;;;;;;;9.38;2.10;;;;;;;16.25;60.88;102763.28;5028135;28;20026;-71
2022/09/21 09:47:55;;;;;;;7.78;1.85;;;;;;;16.23;60.46;102771.00;5012393;28;20121;-70
2022/09/21 09:50:31;;;;;;;5.13;1.90;;;;;;;16.19;61.47;102761.34;5026275;28;20033;-71
2022/09/21 09:53:09;;;;;;;9.65;2.10;;;;;;;16.12;62.25;102766.28;5023862;28;20103;-71
2022/09/21 09:55:43;;;;;;;6.53;1.90;;;;;;;16.14;62.01;102774.97;5026246;28;20392;-71
2022/09/21 09:58:21;;;;;;;4.22;1.55;;;;;;;16.23;62.47;102762.34;5028144;28;20026;-71
2022/09/21 10:00:55;;;;;;;6.32;1.85;;;;;;;16.22;61.61;102768.38;5027143;28;20037;-71
2022/09/21 10:03:27;;;;;;;6.28;1.58;;;;;;;16.17;60.80;102773.41;5027767;28;20542;-71
2022/09/21 10:05:53;;;;;;;5.88;1.33;;;;;;;16.15;60.34;102771.59;5020395;28;20480;-71
2022/09/21 10:08:38;;;;;;;4.15;1.45;;;;;;;16.16;60.79;102771.63;5010346;28;20041;-71
2022/09/21 10:11:04;;;;;;;10.00;1.70;;;;;;;16.11;60.75;102765.41;5029367;28;20099;-71
2022/09/21 10:13:33;;;;;;;7.07;1.50;;;;;;;16.11;60.49;102773.19;5019741;28;20246;-70
2022/09/21 10:16:11;;;;;;;4.95;1.48;;;;;;;16.15;60.63;102769.88;5024421;28;20025;-71
2022/09/21 10:18:38;;;;;;;6.25;1.73;;;;;;;16.19;59.57;102770.84;5020169;28;20109;-71
2022/09/21 10:21:15;;;;;;;5.43;1.20;;;;;;;16.19;58.50;102763.06;5025980;28;20026;-71
2022/09/21 10:23:46;;;;;;;8.02;1.50;;;;;;;16.18;58.90;102761.28;5022091;28;20389;-71
2022/09/21 10:26:13;;;;;;;8.55;1.60;;;;;;;16.14;59.88;102762.91;5024580;28;20030;-71
2022/09/21 10:28:56;;;;;;;4.63;1.60;;;;;;;16.16;57.96;102769.03;5027278;28;20103;-71
2022/09/21 10:31:24;;;;;;;5.30;1.60;;;;;;;16.02;55.83;102760.78;5024388;28;20061;-71
2022/09/21 10:33:53;;;;;;;4.28;1.23;;;;;;;16.05;57.33;102753.06;5023773;28;20164;-71
2022/09/21 10:36:28;;;;;;;5.18;1.35;;;;;;;16.07;57.47;102760.91;5025703;28;20022;-71
2022/09/21 10:38:53;;;;;;;4.57;0.90;;;;;;;16.07;57.25;102753.13;5027386;28;20272;-71
2022/09/21 10:41:19;;;;;;;3.65;1.10;;;;;;;16.05;57.08;102758.28;5010697;28;20034;-71
2022/09/21 10:43:44;;;;;;;6.53;1.20;;;;;;;16.11;57.49;102755.00;5027721;28;20030;-71
2022/09/21 10:46:10;;;;;;;2.72;0.65;;;;;;;16.08;53.23;102745.41;5028099;28;20353;-70
2022/09/21 10:48:36;;;;;;;2.67;0.63;;;;;;;16.08;53.79;102745.41;4991550;28;20161;-70
2022/09/21 10:51:03;;;;;;;2.47;0.50;;;;;;;16.05;51.24;102752.19;5022430;28;20044;-70
2022/09/21 10:53:35;;;;;;;5.20;0.73;;;;;;;16.15;52.25;102749.09;5027761;28;20032;-70
2022/09/21 10:56:02;;;;;;;3.70;0.60;;;;;;;16.12;52.46;102737.72;5025630;28;20092;-70
2022/09/21 10:58:29;;;;;;;5.30;0.90;;;;;;;16.09;53.54;102739.41;5025113;28;20117;-70
2022/09/21 11:01:08;;;;;;;2.28;0.75;;;;;;;16.11;54.26;102744.63;5023961;28;20052;-70
2022/09/21 11:03:45;;;;;;;6.47;0.90;;;;;;;16.24;52.63;102741.63;5009041;28;20026;-70
2022/09/21 11:06:21;;;;;;;6.40;0.88;;;;;;;16.30;50.02;102735.75;5029433;28;20457;-70
2022/09/21 11:08:57;;;;;;;3.05;0.70;;;;;;;16.30;50.30;102741.84;5030311;28;20059;-70
2022/09/21 11:12:00;;;;;;;2.60;0.60;;;;;;;16.39;52.65;102737.81;5031061;28;20112;-70
2022/09/21 11:14:51;;;;;;;4.20;0.65;;;;;;;16.99;50.89;102731.16;4989425;28;20049;-70
2022/09/21 11:17:26;;;;;;;3.15;0.63;;;;;;;17.68;49.15;102728.91;4993060;28;20025;-70
2022/09/21 11:20:03;;;;;;;2.88;0.60;;;;;;;18.23;49.33;102729.56;4985854;28;20036;-70
2022/09/21 11:22:44;;;;;;;4.22;0.65;;;;;;;18.44;48.47;102734.41;4987235;28;20110;-70
2022/09/21 11:25:27;;;;;;;3.47;0.70;;;;;;;18.68;48.51;102729.84;4992242;28;20217;-70
2022/09/21 11:28:19;;;;;;;2.40;0.80;;;;;;;19.11;49.42;102732.56;4991950;28;20105;-70
2022/09/21 11:31:00;;;;;;;4.68;0.90;;;;;;;19.53;47.78;102736.13;4991427;28;20021;-70
2022/09/21 11:33:30;;;;;;;1.77;0.73;;;;;;;19.72;44.52;102731.34;4989385;28;20030;-70
2022/09/21 11:36:21;;;;;;;4.80;0.88;;;;;;;20.07;46.01;102721.53;4991263;28;20507;-70
2022/09/21 11:38:59;;;;;;;6.18;1.33;;;;;;;20.49;44.22;102721.44;4991259;28;20030;-70
2022/09/21 11:41:39;;;;;;;5.97;1.13;;;;;;;20.58;43.34;102729.44;4992252;28;20377;-70
2022/09/21 11:44:23;;;;;;;4.55;1.13;;;;;;;20.71;43.34;102719.19;4988197;28;20105;-70
2022/09/21 11:47:04;;;;;;;4.45;0.90;;;;;;;20.83;42.80;102716.75;4991752;28;20489;-70